sensor_id;sensor_type;location;lat;lon;timestamp;pressure;altitude;pressure_sealevel;temperature;humidity
76680;BME280;65597;51.520;-0.224;2022-12-29T00:01:32;99439.23;;;5.82;57.99
76680;BME280;65597;51.520;-0.224;2022-12-29T00:03:57;99440.89;;;5.98;57.20
76680;BME280;65597;51.520;-0.224;2022-12-29T00:06:23;99440.51;;;6.15;56.91
76680;BME280;65597;51.520;-0.224;2022-12-29T00:08:48;99437.71;;;6.20;56.18
76680;BME280;65597;51.520;-0.224;2022-12-29T00:11:17;99440.92;;;5.68;56.84
76680;BME280;65597;51.520;-0.224;2022-12-29T00:13:39;99437.28;;;5.49;57.40
76680;BME280;65597;51.520;-0.224;2022-12-29T00:16:06;99432.25;;;5.74;56.96
76680;BME280;65597;51.520;-0.224;2022-12-29T00:18:30;99427.34;;;5.79;56.65
76680;BME280;65597;51.520;-0.224;2022-12-29T00:20:55;99424.93;;;5.98;56.49
76680;BME280;65597;51.520;-0.224;2022-12-29T00:23:21;99420.52;;;6.30;55.75
76680;BME280;65597;51.520;-0.224;2022-12-29T00:25:46;99431.40;;;5.38;57.63
76680;BME280;65597;51.520;-0.224;2022-12-29T00:28:11;99418.21;;;5.75;56.29
76680;BME280;65597;51.520;-0.224;2022-12-29T00:30:37;99418.77;;;6.10;55.94
76680;BME280;65597;51.520;-0.224;2022-12-29T00:33:09;99421.33;;;6.00;56.23
76680;BME280;65597;51.520;-0.224;2022-12-29T00:35:30;99435.23;;;5.45;56.48
76680;BME280;65597;51.520;-0.224;2022-12-29T00:37:55;99426.81;;;5.60;56.39
76680;BME280;65597;51.520;-0.224;2022-12-29T00:40:18;99426.13;;;5.34;56.76
76680;BME280;65597;51.520;-0.224;2022-12-29T00:42:44;99426.97;;;5.94;55.39
76680;BME280;65597;51.520;-0.224;2022-12-29T00:45:10;99416.85;;;6.03;55.06
76680;BME280;65597;51.520;-0.224;2022-12-29T00:47:35;99423.86;;;6.25;54.41
76680;BME280;65597;51.520;-0.224;2022-12-29T00:50:00;99430.21;;;5.58;55.10
76680;BME280;65597;51.520;-0.224;2022-12-29T00:52:26;99430.63;;;5.65;55.75
76680;BME280;65597;51.520;-0.224;2022-12-29T00:54:51;99426.12;;;5.77;55.66
76680;BME280;65597;51.520;-0.224;2022-12-29T00:57:16;99424.10;;;5.97;55.63
76680;BME280;65597;51.520;-0.224;2022-12-29T00:59:42;99428.20;;;5.59;56.55
76680;BME280;65597;51.520;-0.224;2022-12-29T01:02:08;99423.73;;;6.06;56.85
76680;BME280;65597;51.520;-0.224;2022-12-29T01:04:33;99425.08;;;5.90;56.42
76680;BME280;65597;51.520;-0.224;2022-12-29T01:06:58;99430.48;;;5.78;56.52
76680;BME280;65597;51.520;-0.224;2022-12-29T01:09:23;99426.03;;;5.54;56.71
76680;BME280;65597;51.520;-0.224;2022-12-29T01:11:50;99419.17;;;6.02;55.68
76680;BME280;65597;51.520;-0.224;2022-12-29T01:14:14;99416.42;;;5.88;55.27
76680;BME280;65597;51.520;-0.224;2022-12-29T01:16:39;99423.54;;;6.03;54.97
76680;BME280;65597;51.520;-0.224;2022-12-29T01:19:04;99429.52;;;6.00;54.95
76680;BME280;65597;51.520;-0.224;2022-12-29T01:21:30;99411.12;;;5.84;54.89
76680;BME280;65597;51.520;-0.224;2022-12-29T01:23:55;99407.52;;;5.44;54.76
76680;BME280;65597;51.520;-0.224;2022-12-29T01:26:20;99405.70;;;5.25;54.61
76680;BME280;65597;51.520;-0.224;2022-12-29T01:28:46;99394.39;;;5.13;54.45
76680;BME280;65597;51.520;-0.224;2022-12-29T01:31:13;99393.75;;;5.04;54.54
76680;BME280;65597;51.520;-0.224;2022-12-29T01:33:37;99407.17;;;5.38;54.11
76680;BME280;65597;51.520;-0.224;2022-12-29T01:36:02;99417.77;;;5.06;53.03
76680;BME280;65597;51.520;-0.224;2022-12-29T01:38:27;99424.09;;;4.67;53.53
76680;BME280;65597;51.520;-0.224;2022-12-29T01:40:52;99441.32;;;4.60;53.83
76680;BME280;65597;51.520;-0.224;2022-12-29T01:43:17;99430.85;;;5.20;53.02
76680;BME280;65597;51.520;-0.224;2022-12-29T01:45:47;99432.69;;;5.63;52.65
76680;BME280;65597;51.520;-0.224;2022-12-29T01:48:09;99424.32;;;5.44;53.58
76680;BME280;65597;51.520;-0.224;2022-12-29T01:50:38;99428.46;;;5.56;53.81
76680;BME280;65597;51.520;-0.224;2022-12-29T01:53:01;99419.00;;;5.76;53.88
76680;BME280;65597;51.520;-0.224;2022-12-29T01:55:26;99437.09;;;5.46;54.00
76680;BME280;65597;51.520;-0.224;2022-12-29T01:57:51;99434.05;;;5.07;55.44
76680;BME280;65597;51.520;-0.224;2022-12-29T02:00:16;99431.67;;;5.43;54.56
76680;BME280;65597;51.520;-0.224;2022-12-29T02:02:45;99441.54;;;4.91;54.67
76680;BME280;65597;51.520;-0.224;2022-12-29T02:05:11;99426.84;;;4.99;54.31
76680;BME280;65597;51.520;-0.224;2022-12-29T02:07:31;99429.45;;;5.37;53.39
76680;BME280;65597;51.520;-0.224;2022-12-29T02:09:58;99434.93;;;5.80;52.87
76680;BME280;65597;51.520;-0.224;2022-12-29T02:12:23;99435.82;;;5.78;52.41
76680;BME280;65597;51.520;-0.224;2022-12-29T02:14:51;99439.60;;;5.69;51.98
76680;BME280;65597;51.520;-0.224;2022-12-29T02:17:20;99431.76;;;5.63;52.00
76680;BME280;65597;51.520;-0.224;2022-12-29T02:19:53;99426.80;;;5.90;51.20
76680;BME280;65597;51.520;-0.224;2022-12-29T02:22:14;99447.07;;;5.52;51.09
76680;BME280;65597;51.520;-0.224;2022-12-29T02:27:19;99431.31;;;6.08;50.40
76680;BME280;65597;51.520;-0.224;2022-12-29T02:29:32;99441.49;;;5.91;49.86
76680;BME280;65597;51.520;-0.224;2022-12-29T02:31:49;99456.41;;;5.36;50.77
76680;BME280;65597;51.520;-0.224;2022-12-29T02:34:19;99445.17;;;5.76;50.10
76680;BME280;65597;51.520;-0.224;2022-12-29T02:36:42;99453.41;;;5.71;50.28
76680;BME280;65597;51.520;-0.224;2022-12-29T02:39:09;99445.16;;;5.49;50.21
76680;BME280;65597;51.520;-0.224;2022-12-29T02:41:32;99437.15;;;5.01;51.59
76680;BME280;65597;51.520;-0.224;2022-12-29T02:43:58;99438.61;;;5.95;50.51
76680;BME280;65597;51.520;-0.224;2022-12-29T02:46:21;99435.70;;;5.74;50.75
76680;BME280;65597;51.520;-0.224;2022-12-29T02:48:47;99435.22;;;5.77;51.21
76680;BME280;65597;51.520;-0.224;2022-12-29T02:51:14;99434.65;;;5.97;51.22
76680;BME280;65597;51.520;-0.224;2022-12-29T02:53:36;99422.40;;;5.65;51.52
76680;BME280;65597;51.520;-0.224;2022-12-29T02:56:01;99427.42;;;5.34;52.42
76680;BME280;65597;51.520;-0.224;2022-12-29T02:58:26;99429.21;;;5.48;52.36
76680;BME280;65597;51.520;-0.224;2022-12-29T03:01:04;99423.19;;;5.85;52.06
76680;BME280;65597;51.520;-0.224;2022-12-29T03:03:25;99426.15;;;5.16;53.66
76680;BME280;65597;51.520;-0.224;2022-12-29T03:05:59;99440.39;;;5.58;53.03
76680;BME280;65597;51.520;-0.224;2022-12-29T03:08:15;99440.60;;;5.79;52.60
76680;BME280;65597;51.520;-0.224;2022-12-29T03:10:41;99440.70;;;5.91;52.43
76680;BME280;65597;51.520;-0.224;2022-12-29T03:13:03;99450.99;;;5.37;53.12
76680;BME280;65597;51.520;-0.224;2022-12-29T03:15:29;99455.53;;;6.26;51.93
76680;BME280;65597;51.520;-0.224;2022-12-29T03:17:54;99453.37;;;5.27;53.31
76680;BME280;65597;51.520;-0.224;2022-12-29T03:20:19;99450.07;;;6.19;52.00
76680;BME280;65597;51.520;-0.224;2022-12-29T03:22:43;99437.32;;;6.30;51.74
76680;BME280;65597;51.520;-0.224;2022-12-29T03:25:10;99432.10;;;6.19;51.37
76680;BME280;65597;51.520;-0.224;2022-12-29T03:27:35;99436.76;;;6.13;51.41
76680;BME280;65597;51.520;-0.224;2022-12-29T03:30:00;99438.08;;;6.06;51.43
76680;BME280;65597;51.520;-0.224;2022-12-29T03:32:26;99438.32;;;6.04;51.17
76680;BME280;65597;51.520;-0.224;2022-12-29T03:34:49;99428.35;;;5.76;52.09
76680;BME280;65597;51.520;-0.224;2022-12-29T03:37:17;99432.98;;;5.71;52.21
76680;BME280;65597;51.520;-0.224;2022-12-29T03:39:40;99431.59;;;6.07;51.78
76680;BME280;65597;51.520;-0.224;2022-12-29T03:42:09;99437.28;;;5.93;51.27
76680;BME280;65597;51.520;-0.224;2022-12-29T03:44:32;99433.09;;;5.51;51.87
76680;BME280;65597;51.520;-0.224;2022-12-29T03:46:56;99435.03;;;5.89;51.51
76680;BME280;65597;51.520;-0.224;2022-12-29T03:49:22;99448.52;;;5.96;51.73
76680;BME280;65597;51.520;-0.224;2022-12-29T03:51:47;99419.76;;;6.04;51.46
76680;BME280;65597;51.520;-0.224;2022-12-29T03:54:12;99434.22;;;5.69;51.44
76680;BME280;65597;51.520;-0.224;2022-12-29T03:56:38;99433.00;;;5.90;51.32
76680;BME280;65597;51.520;-0.224;2022-12-29T03:59:03;99415.73;;;5.82;51.73
76680;BME280;65597;51.520;-0.224;2022-12-29T04:01:28;99417.99;;;6.04;51.46
76680;BME280;65597;51.520;-0.224;2022-12-29T04:03:53;99418.77;;;6.10;51.18
76680;BME280;65597;51.520;-0.224;2022-12-29T04:06:19;99412.12;;;6.17;51.51
76680;BME280;65597;51.520;-0.224;2022-12-29T04:08:44;99420.88;;;5.92;52.33
76680;BME280;65597;51.520;-0.224;2022-12-29T04:11:09;99418.67;;;6.11;52.43
76680;BME280;65597;51.520;-0.224;2022-12-29T04:13:35;99423.26;;;5.36;53.33
76680;BME280;65597;51.520;-0.224;2022-12-29T04:16:00;99419.46;;;5.93;53.17
76680;BME280;65597;51.520;-0.224;2022-12-29T04:18:26;99423.83;;;5.31;53.94
76680;BME280;65597;51.520;-0.224;2022-12-29T04:20:51;99412.73;;;5.86;53.46
76680;BME280;65597;51.520;-0.224;2022-12-29T04:23:16;99432.68;;;5.85;52.90
76680;BME280;65597;51.520;-0.224;2022-12-29T04:25:45;99438.15;;;5.93;53.08
76680;BME280;65597;51.520;-0.224;2022-12-29T04:28:07;99432.86;;;5.63;54.12
76680;BME280;65597;51.520;-0.224;2022-12-29T04:30:32;99428.99;;;5.60;54.56
76680;BME280;65597;51.520;-0.224;2022-12-29T04:32:58;99431.39;;;5.32;55.40
76680;BME280;65597;51.520;-0.224;2022-12-29T04:35:23;99436.33;;;5.43;55.45
76680;BME280;65597;51.520;-0.224;2022-12-29T04:37:48;99435.25;;;5.54;55.33
76680;BME280;65597;51.520;-0.224;2022-12-29T04:40:14;99437.02;;;5.34;55.47
76680;BME280;65597;51.520;-0.224;2022-12-29T04:42:39;99438.50;;;5.72;55.19
76680;BME280;65597;51.520;-0.224;2022-12-29T04:45:05;99448.78;;;5.82;55.17
76680;BME280;65597;51.520;-0.224;2022-12-29T04:47:30;99452.02;;;5.78;55.91
76680;BME280;65597;51.520;-0.224;2022-12-29T04:49:55;99450.72;;;5.90;55.28
76680;BME280;65597;51.520;-0.224;2022-12-29T04:52:21;99456.85;;;5.76;55.74
76680;BME280;65597;51.520;-0.224;2022-12-29T04:54:46;99461.98;;;5.58;56.10
76680;BME280;65597;51.520;-0.224;2022-12-29T04:57:11;99478.01;;;5.77;55.73
76680;BME280;65597;51.520;-0.224;2022-12-29T04:59:37;99452.97;;;5.08;56.78
76680;BME280;65597;51.520;-0.224;2022-12-29T05:02:02;99465.24;;;5.93;55.60
76680;BME280;65597;51.520;-0.224;2022-12-29T05:04:28;99474.11;;;5.73;56.04
76680;BME280;65597;51.520;-0.224;2022-12-29T05:06:53;99487.88;;;5.66;56.12
76680;BME280;65597;51.520;-0.224;2022-12-29T05:09:18;99480.48;;;6.01;56.08
76680;BME280;65597;51.520;-0.224;2022-12-29T05:11:43;99492.60;;;5.98;55.78
76680;BME280;65597;51.520;-0.224;2022-12-29T05:14:09;99503.54;;;5.95;55.81
76680;BME280;65597;51.520;-0.224;2022-12-29T05:16:35;99511.04;;;5.95;55.79
76680;BME280;65597;51.520;-0.224;2022-12-29T05:19:00;99512.43;;;5.84;55.54
76680;BME280;65597;51.520;-0.224;2022-12-29T05:21:26;99521.28;;;6.20;55.48
76680;BME280;65597;51.520;-0.224;2022-12-29T05:23:51;99530.80;;;5.62;56.63
76680;BME280;65597;51.520;-0.224;2022-12-29T05:26:17;99539.99;;;5.19;57.30
76680;BME280;65597;51.520;-0.224;2022-12-29T05:28:42;99543.64;;;5.60;56.70
76680;BME280;65597;51.520;-0.224;2022-12-29T05:31:08;99551.72;;;6.06;55.70
76680;BME280;65597;51.520;-0.224;2022-12-29T05:33:33;99573.46;;;5.66;56.20
76680;BME280;65597;51.520;-0.224;2022-12-29T05:36:03;99579.06;;;5.14;56.47
76680;BME280;65597;51.520;-0.224;2022-12-29T05:38:24;99579.93;;;6.07;55.15
76680;BME280;65597;51.520;-0.224;2022-12-29T05:40:50;99598.59;;;5.72;55.54
76680;BME280;65597;51.520;-0.224;2022-12-29T05:43:15;99607.98;;;5.33;55.49
76680;BME280;65597;51.520;-0.224;2022-12-29T05:45:40;99613.98;;;5.85;54.70
76680;BME280;65597;51.520;-0.224;2022-12-29T05:48:06;99622.29;;;5.91;54.47
76680;BME280;65597;51.520;-0.224;2022-12-29T05:50:31;99643.35;;;6.08;54.16
76680;BME280;65597;51.520;-0.224;2022-12-29T05:52:56;99644.38;;;6.20;53.98
76680;BME280;65597;51.520;-0.224;2022-12-29T05:55:22;99647.78;;;5.39;55.06
76680;BME280;65597;51.520;-0.224;2022-12-29T05:57:47;99657.22;;;5.54;54.49
76680;BME280;65597;51.520;-0.224;2022-12-29T06:00:14;99659.03;;;5.85;53.85
76680;BME280;65597;51.520;-0.224;2022-12-29T06:02:38;99670.04;;;5.70;53.72
76680;BME280;65597;51.520;-0.224;2022-12-29T06:05:04;99677.01;;;6.04;53.12
76680;BME280;65597;51.520;-0.224;2022-12-29T06:07:29;99676.77;;;5.78;53.38
76680;BME280;65597;51.520;-0.224;2022-12-29T06:09:54;99677.69;;;5.68;53.41
76680;BME280;65597;51.520;-0.224;2022-12-29T06:12:20;99692.44;;;6.18;52.34
76680;BME280;65597;51.520;-0.224;2022-12-29T06:14:45;99689.13;;;6.01;52.23
76680;BME280;65597;51.520;-0.224;2022-12-29T06:17:11;99701.89;;;5.88;52.67
76680;BME280;65597;51.520;-0.224;2022-12-29T06:19:36;99695.08;;;6.08;52.81
76680;BME280;65597;51.520;-0.224;2022-12-29T06:22:02;99699.88;;;5.72;51.83
76680;BME280;65597;51.520;-0.224;2022-12-29T06:24:27;99715.14;;;5.82;51.77
76680;BME280;65597;51.520;-0.224;2022-12-29T06:26:53;99715.86;;;5.96;51.70
76680;BME280;65597;51.520;-0.224;2022-12-29T06:29:18;99717.40;;;5.90;52.04
76680;BME280;65597;51.520;-0.224;2022-12-29T06:31:43;99716.99;;;5.76;51.98
76680;BME280;65597;51.520;-0.224;2022-12-29T06:34:09;99717.42;;;5.30;52.82
76680;BME280;65597;51.520;-0.224;2022-12-29T06:36:34;99732.08;;;5.71;52.17
76680;BME280;65597;51.520;-0.224;2022-12-29T06:39:00;99735.94;;;5.89;51.91
76680;BME280;65597;51.520;-0.224;2022-12-29T06:41:25;99738.11;;;5.58;52.45
76680;BME280;65597;51.520;-0.224;2022-12-29T06:43:50;99745.11;;;5.33;53.18
76680;BME280;65597;51.520;-0.224;2022-12-29T06:46:16;99759.59;;;5.45;52.79
76680;BME280;65597;51.520;-0.224;2022-12-29T06:48:41;99754.67;;;5.63;52.55
76680;BME280;65597;51.520;-0.224;2022-12-29T06:51:07;99767.02;;;5.59;52.79
76680;BME280;65597;51.520;-0.224;2022-12-29T06:53:32;99770.50;;;5.45;52.57
76680;BME280;65597;51.520;-0.224;2022-12-29T06:55:58;99786.82;;;5.73;51.92
76680;BME280;65597;51.520;-0.224;2022-12-29T06:58:23;99790.78;;;5.29;52.55
76680;BME280;65597;51.520;-0.224;2022-12-29T07:00:49;99790.26;;;5.22;53.07
76680;BME280;65597;51.520;-0.224;2022-12-29T07:03:14;99793.14;;;5.24;52.99
76680;BME280;65597;51.520;-0.224;2022-12-29T07:05:40;99801.80;;;5.46;52.08
76680;BME280;65597;51.520;-0.224;2022-12-29T07:08:05;99803.58;;;5.98;51.60
76680;BME280;65597;51.520;-0.224;2022-12-29T07:10:31;99805.58;;;5.57;51.56
76680;BME280;65597;51.520;-0.224;2022-12-29T07:12:56;99802.21;;;5.70;51.38
76680;BME280;65597;51.520;-0.224;2022-12-29T07:15:22;99801.96;;;5.55;51.21
76680;BME280;65597;51.520;-0.224;2022-12-29T07:17:47;99812.20;;;5.41;51.89
76680;BME280;65597;51.520;-0.224;2022-12-29T07:20:12;99812.13;;;5.48;51.87
76680;BME280;65597;51.520;-0.224;2022-12-29T07:22:38;99813.84;;;5.38;51.63
76680;BME280;65597;51.520;-0.224;2022-12-29T07:25:04;99822.36;;;5.10;52.69
76680;BME280;65597;51.520;-0.224;2022-12-29T07:27:29;99821.40;;;5.47;51.83
76680;BME280;65597;51.520;-0.224;2022-12-29T07:29:54;99822.83;;;4.95;52.51
76680;BME280;65597;51.520;-0.224;2022-12-29T07:32:20;99823.41;;;5.76;51.67
76680;BME280;65597;51.520;-0.224;2022-12-29T07:34:45;99835.92;;;5.53;52.02
76680;BME280;65597;51.520;-0.224;2022-12-29T07:37:11;99844.78;;;5.51;51.67
76680;BME280;65597;51.520;-0.224;2022-12-29T07:39:36;99849.30;;;5.45;51.99
76680;BME280;65597;51.520;-0.224;2022-12-29T07:42:02;99862.61;;;5.42;52.11
76680;BME280;65597;51.520;-0.224;2022-12-29T07:44:27;99857.53;;;5.69;51.82
76680;BME280;65597;51.520;-0.224;2022-12-29T07:46:53;99867.63;;;5.84;51.64
76680;BME280;65597;51.520;-0.224;2022-12-29T07:49:18;99873.03;;;5.58;51.80
76680;BME280;65597;51.520;-0.224;2022-12-29T07:51:44;99865.93;;;5.61;51.44
76680;BME280;65597;51.520;-0.224;2022-12-29T07:54:09;99883.94;;;5.42;51.78
76680;BME280;65597;51.520;-0.224;2022-12-29T07:56:35;99875.11;;;5.28;52.44
76680;BME280;65597;51.520;-0.224;2022-12-29T07:59:00;99878.31;;;5.22;52.16
76680;BME280;65597;51.520;-0.224;2022-12-29T08:01:26;99876.70;;;5.48;51.45
76680;BME280;65597;51.520;-0.224;2022-12-29T08:03:51;99878.30;;;5.78;50.81
76680;BME280;65597;51.520;-0.224;2022-12-29T08:06:17;99880.29;;;6.34;50.69
76680;BME280;65597;51.520;-0.224;2022-12-29T08:08:42;99888.87;;;6.14;50.23
76680;BME280;65597;51.520;-0.224;2022-12-29T08:11:08;99901.90;;;5.49;51.24
76680;BME280;65597;51.520;-0.224;2022-12-29T08:13:33;99902.70;;;5.56;51.85
76680;BME280;65597;51.520;-0.224;2022-12-29T08:15:59;99903.21;;;5.75;51.38
76680;BME280;65597;51.520;-0.224;2022-12-29T08:18:24;99905.88;;;5.41;51.98
76680;BME280;65597;51.520;-0.224;2022-12-29T08:20:49;99918.23;;;5.47;51.97
76680;BME280;65597;51.520;-0.224;2022-12-29T08:23:14;99914.58;;;5.59;51.95
76680;BME280;65597;51.520;-0.224;2022-12-29T08:25:40;99920.93;;;5.78;51.72
76680;BME280;65597;51.520;-0.224;2022-12-29T08:28:05;99929.44;;;5.80;52.24
76680;BME280;65597;51.520;-0.224;2022-12-29T08:30:31;99940.86;;;5.78;51.80
76680;BME280;65597;51.520;-0.224;2022-12-29T08:32:57;99938.84;;;5.80;52.01
76680;BME280;65597;51.520;-0.224;2022-12-29T08:35:22;99951.44;;;5.52;52.65
76680;BME280;65597;51.520;-0.224;2022-12-29T08:37:47;99951.88;;;5.53;53.14
76680;BME280;65597;51.520;-0.224;2022-12-29T08:40:13;99966.06;;;5.31;53.83
76680;BME280;65597;51.520;-0.224;2022-12-29T08:42:38;99963.92;;;5.57;53.35
76680;BME280;65597;51.520;-0.224;2022-12-29T08:45:05;99962.65;;;6.14;52.41
76680;BME280;65597;51.520;-0.224;2022-12-29T08:47:29;99971.35;;;6.04;52.78
76680;BME280;65597;51.520;-0.224;2022-12-29T08:49:54;99967.91;;;6.05;52.21
76680;BME280;65597;51.520;-0.224;2022-12-29T08:52:20;99971.28;;;5.16;54.41
76680;BME280;65597;51.520;-0.224;2022-12-29T08:54:45;99982.90;;;5.43;53.41
76680;BME280;65597;51.520;-0.224;2022-12-29T08:57:11;99985.40;;;4.85;54.50
76680;BME280;65597;51.520;-0.224;2022-12-29T08:59:36;99992.86;;;5.56;53.79
76680;BME280;65597;51.520;-0.224;2022-12-29T09:02:02;99994.57;;;5.89;52.83
76680;BME280;65597;51.520;-0.224;2022-12-29T09:04:27;99996.78;;;5.65;53.06
76680;BME280;65597;51.520;-0.224;2022-12-29T09:06:53;100003.52;;;4.80;54.68
76680;BME280;65597;51.520;-0.224;2022-12-29T09:09:18;100001.99;;;5.25;54.09
76680;BME280;65597;51.520;-0.224;2022-12-29T09:11:44;99998.92;;;5.96;53.03
76680;BME280;65597;51.520;-0.224;2022-12-29T09:14:09;100001.41;;;5.65;53.26
76680;BME280;65597;51.520;-0.224;2022-12-29T09:16:35;100009.37;;;5.90;53.05
76680;BME280;65597;51.520;-0.224;2022-12-29T09:19:01;100000.19;;;5.82;52.86
76680;BME280;65597;51.520;-0.224;2022-12-29T09:21:26;100005.21;;;6.25;52.50
76680;BME280;65597;51.520;-0.224;2022-12-29T09:23:52;100007.73;;;6.32;51.97
76680;BME280;65597;51.520;-0.224;2022-12-29T09:26:17;100012.63;;;5.80;52.76
76680;BME280;65597;51.520;-0.224;2022-12-29T09:28:42;100014.35;;;5.84;52.53
76680;BME280;65597;51.520;-0.224;2022-12-29T09:31:08;100020.08;;;5.76;52.14
76680;BME280;65597;51.520;-0.224;2022-12-29T09:33:34;100021.97;;;5.54;52.96
76680;BME280;65597;51.520;-0.224;2022-12-29T09:35:59;100018.46;;;5.64;52.50
76680;BME280;65597;51.520;-0.224;2022-12-29T09:38:25;100027.01;;;5.52;53.02
76680;BME280;65597;51.520;-0.224;2022-12-29T09:40:52;100026.27;;;5.92;52.87
76680;BME280;65597;51.520;-0.224;2022-12-29T09:43:32;100024.18;;;6.05;51.92
76680;BME280;65597;51.520;-0.224;2022-12-29T09:45:44;100029.61;;;6.27;51.23
76680;BME280;65597;51.520;-0.224;2022-12-29T09:48:13;100031.12;;;6.01;51.50
76680;BME280;65597;51.520;-0.224;2022-12-29T09:50:34;100044.84;;;5.37;51.94
76680;BME280;65597;51.520;-0.224;2022-12-29T09:53:02;100065.66;;;5.37;52.41
76680;BME280;65597;51.520;-0.224;2022-12-29T09:55:29;100063.66;;;5.18;52.59
76680;BME280;65597;51.520;-0.224;2022-12-29T09:57:53;100056.16;;;5.62;51.83
76680;BME280;65597;51.520;-0.224;2022-12-29T10:00:16;100066.77;;;5.42;51.88
76680;BME280;65597;51.520;-0.224;2022-12-29T10:02:42;100071.97;;;4.43;54.07
76680;BME280;65597;51.520;-0.224;2022-12-29T10:05:17;100080.46;;;4.89;52.83
76680;BME280;65597;51.520;-0.224;2022-12-29T10:07:38;100073.72;;;5.15;52.82
76680;BME280;65597;51.520;-0.224;2022-12-29T10:10:03;100087.91;;;4.66;53.59
76680;BME280;65597;51.520;-0.224;2022-12-29T10:12:29;100089.69;;;4.71;53.18
76680;BME280;65597;51.520;-0.224;2022-12-29T10:14:58;100094.41;;;4.59;53.33
76680;BME280;65597;51.520;-0.224;2022-12-29T10:17:22;100102.31;;;5.15;52.64
76680;BME280;65597;51.520;-0.224;2022-12-29T10:19:48;100099.58;;;5.40;52.15
76680;BME280;65597;51.520;-0.224;2022-12-29T10:22:12;100108.82;;;5.08;52.51
76680;BME280;65597;51.520;-0.224;2022-12-29T10:24:30;100119.61;;;4.54;53.19
76680;BME280;65597;51.520;-0.224;2022-12-29T10:26:56;100118.21;;;4.78;52.52
76680;BME280;65597;51.520;-0.224;2022-12-29T10:29:21;100124.48;;;5.27;52.28
76680;BME280;65597;51.520;-0.224;2022-12-29T10:31:48;100130.10;;;5.53;51.92
76680;BME280;65597;51.520;-0.224;2022-12-29T10:34:16;100133.77;;;5.64;52.00
76680;BME280;65597;51.520;-0.224;2022-12-29T10:36:39;100135.21;;;5.66;51.97
76680;BME280;65597;51.520;-0.224;2022-12-29T10:39:06;100131.00;;;5.47;51.38
76680;BME280;65597;51.520;-0.224;2022-12-29T10:41:33;100136.14;;;5.73;51.33
76680;BME280;65597;51.520;-0.224;2022-12-29T10:43:54;100138.06;;;5.38;51.40
76680;BME280;65597;51.520;-0.224;2022-12-29T10:46:20;100136.48;;;5.66;51.50
76680;BME280;65597;51.520;-0.224;2022-12-29T10:48:44;100142.80;;;5.78;50.79
76680;BME280;65597;51.520;-0.224;2022-12-29T10:51:09;100143.08;;;5.70;50.43
76680;BME280;65597;51.520;-0.224;2022-12-29T10:53:39;100142.79;;;5.55;51.03
76680;BME280;65597;51.520;-0.224;2022-12-29T10:56:01;100149.55;;;5.72;50.71
76680;BME280;65597;51.520;-0.224;2022-12-29T10:58:26;100158.74;;;5.28;50.89
76680;BME280;65597;51.520;-0.224;2022-12-29T11:00:53;100154.38;;;5.76;50.17
76680;BME280;65597;51.520;-0.224;2022-12-29T11:03:34;100153.68;;;6.35;49.39
76680;BME280;65597;51.520;-0.224;2022-12-29T11:05:46;100157.99;;;5.90;49.05
76680;BME280;65597;51.520;-0.224;2022-12-29T11:08:10;100170.78;;;5.53;49.79
76680;BME280;65597;51.520;-0.224;2022-12-29T11:10:37;100176.81;;;5.88;49.47
76680;BME280;65597;51.520;-0.224;2022-12-29T11:13:01;100173.57;;;5.81;49.24
76680;BME280;65597;51.520;-0.224;2022-12-29T11:15:24;100178.24;;;5.69;48.60
76680;BME280;65597;51.520;-0.224;2022-12-29T11:17:52;100196.42;;;5.52;49.14
76680;BME280;65597;51.520;-0.224;2022-12-29T11:20:27;100182.44;;;5.81;48.75
76680;BME280;65597;51.520;-0.224;2022-12-29T11:22:44;100182.04;;;5.94;49.03
76680;BME280;65597;51.520;-0.224;2022-12-29T11:25:12;100174.65;;;6.19;48.46
76680;BME280;65597;51.520;-0.224;2022-12-29T11:27:31;100172.85;;;6.53;47.98
76680;BME280;65597;51.520;-0.224;2022-12-29T11:29:57;100184.52;;;5.56;48.82
76680;BME280;65597;51.520;-0.224;2022-12-29T11:32:25;100185.54;;;6.14;48.87
76680;BME280;65597;51.520;-0.224;2022-12-29T11:34:48;100189.14;;;6.06;48.62
76680;BME280;65597;51.520;-0.224;2022-12-29T11:37:15;100182.99;;;6.58;47.75
76680;BME280;65597;51.520;-0.224;2022-12-29T11:39:41;100197.79;;;6.07;47.99
76680;BME280;65597;51.520;-0.224;2022-12-29T11:42:06;100194.17;;;6.23;47.54
76680;BME280;65597;51.520;-0.224;2022-12-29T11:44:36;100191.23;;;6.06;47.78
76680;BME280;65597;51.520;-0.224;2022-12-29T11:46:55;100198.84;;;5.53;47.75
76680;BME280;65597;51.520;-0.224;2022-12-29T11:49:23;100206.14;;;5.30;47.56
76680;BME280;65597;51.520;-0.224;2022-12-29T11:51:47;100200.28;;;5.93;46.77
76680;BME280;65597;51.520;-0.224;2022-12-29T11:54:16;100206.90;;;6.00;46.54
76680;BME280;65597;51.520;-0.224;2022-12-29T11:56:39;100203.89;;;6.08;47.15
76680;BME280;65597;51.520;-0.224;2022-12-29T12:01:33;100206.24;;;6.03;46.50
76680;BME280;65597;51.520;-0.224;2022-12-29T12:03:57;100204.02;;;6.04;46.24
76680;BME280;65597;51.520;-0.224;2022-12-29T12:06:20;100212.53;;;6.45;46.21
76680;BME280;65597;51.520;-0.224;2022-12-29T12:08:48;100215.47;;;6.19;46.28
76680;BME280;65597;51.520;-0.224;2022-12-29T12:11:10;100224.39;;;5.74;47.38
76680;BME280;65597;51.520;-0.224;2022-12-29T12:13:38;100222.38;;;5.98;47.07
76680;BME280;65597;51.520;-0.224;2022-12-29T12:16:05;100229.11;;;5.55;46.84
76680;BME280;65597;51.520;-0.224;2022-12-29T12:18:33;100231.40;;;5.97;47.01
76680;BME280;65597;51.520;-0.224;2022-12-29T12:20:54;100234.81;;;6.20;46.22
76680;BME280;65597;51.520;-0.224;2022-12-29T12:23:25;100229.42;;;6.27;46.71
76680;BME280;65597;51.520;-0.224;2022-12-29T12:25:46;100235.26;;;6.18;45.93
76680;BME280;65597;51.520;-0.224;2022-12-29T12:28:13;100234.00;;;6.06;45.34
76680;BME280;65597;51.520;-0.224;2022-12-29T12:30:37;100226.94;;;6.41;44.61
76680;BME280;65597;51.520;-0.224;2022-12-29T12:33:02;100219.85;;;6.42;44.13
76680;BME280;65597;51.520;-0.224;2022-12-29T12:35:29;100240.19;;;5.60;45.10
76680;BME280;65597;51.520;-0.224;2022-12-29T12:38:00;100232.44;;;5.52;45.48
76680;BME280;65597;51.520;-0.224;2022-12-29T12:40:27;100212.88;;;5.78;44.94
76680;BME280;65597;51.520;-0.224;2022-12-29T12:42:47;100214.36;;;6.51;44.50
76680;BME280;65597;51.520;-0.224;2022-12-29T12:47:43;100228.02;;;5.84;44.84
76680;BME280;65597;51.520;-0.224;2022-12-29T12:50:15;100221.04;;;6.51;43.43
76680;BME280;65597;51.520;-0.224;2022-12-29T12:52:28;100226.22;;;6.64;43.49
76680;BME280;65597;51.520;-0.224;2022-12-29T12:55:02;100220.95;;;6.68;43.66